createdAt,value
2017-05-03T00:00:31.519Z,16.14
2017-05-03T00:03:00.824Z,14.98
2017-05-03T00:05:30.560Z,18.34
2017-05-03T00:07:59.560Z,12.92
2017-05-03T00:10:28.804Z,12.40
2017-05-03T00:12:57.881Z,15.92
2017-05-03T00:15:27.623Z,12.80
2017-05-03T00:17:56.873Z,17.30
2017-05-03T00:20:25.839Z,15.00
2017-05-03T00:22:54.779Z,13.72
2017-05-03T00:25:24.061Z,24.18
2017-05-03T00:27:53.749Z,14.46
2017-05-03T00:30:22.686Z,9.74
2017-05-03T00:32:51.977Z,17.44
2017-05-03T00:35:20.912Z,13.64
2017-05-03T00:37:49.869Z,15.42
2017-05-03T00:40:19.138Z,16.36
2017-05-03T00:42:48.815Z,17.00
2017-05-03T00:45:17.867Z,15.84
2017-05-03T00:47:47.104Z,12.80
2017-05-03T00:50:16.134Z,22.40
2017-05-03T00:52:45.074Z,14.12
2017-05-03T00:55:14.419Z,13.40
2017-05-03T00:57:43.346Z,18.60
2017-05-03T01:00:12.305Z,16.82
2017-05-03T01:02:42.411Z,17.14
2017-05-03T01:05:11.771Z,24.38
2017-05-03T01:10:14.870Z,15.88
2017-05-03T01:12:43.826Z,17.06
2017-05-03T01:15:13.533Z,15.42
2017-05-03T01:17:43.543Z,14.98
2017-05-03T01:20:13.322Z,18.38
2017-05-03T01:22:42.839Z,18.98
2017-05-03T01:25:12.083Z,14.74
2017-05-03T01:27:41.032Z,17.86
2017-05-03T01:30:09.986Z,19.48
2017-05-03T01:32:39.219Z,16.62
2017-05-03T01:35:08.176Z,21.16
2017-05-03T01:37:37.104Z,22.20
2017-05-03T01:40:06.408Z,17.88
2017-05-03T01:42:35.372Z,17.64
2017-05-03T01:45:04.387Z,22.02
2017-05-03T01:47:33.640Z,17.12
2017-05-03T01:50:02.578Z,19.18
2017-05-03T01:52:32.268Z,18.88
2017-05-03T01:55:01.602Z,16.66
2017-05-03T01:57:31.356Z,20.44
2017-05-03T02:00:00.298Z,17.82
2017-05-03T02:02:30.319Z,18.72
2017-05-03T02:05:00.049Z,21.32
2017-05-03T02:07:28.985Z,22.48
2017-05-03T02:09:58.315Z,18.26
2017-05-03T02:12:28.001Z,17.12
2017-05-03T02:14:56.945Z,20.10
2017-05-03T02:17:26.168Z,20.16
2017-05-03T02:19:55.115Z,23.74
2017-05-03T02:22:24.197Z,21.18
2017-05-03T02:24:54.327Z,19.36
2017-05-03T02:27:23.995Z,21.32
2017-05-03T02:29:52.971Z,21.92
2017-05-03T02:32:22.311Z,25.50
2017-05-03T02:34:52.004Z,23.32
2017-05-03T02:37:20.967Z,20.74
2017-05-03T02:39:50.186Z,19.54
2017-05-03T02:42:19.127Z,24.10
2017-05-03T02:44:48.151Z,23.42
2017-05-03T02:47:17.466Z,20.96
2017-05-03T02:49:46.415Z,29.04
2017-05-03T02:52:15.372Z,22.36
2017-05-03T02:54:45.342Z,23.32
2017-05-03T02:57:14.315Z,22.46
2017-05-03T02:59:43.254Z,25.34
2017-05-03T03:02:12.555Z,25.66
2017-05-03T03:04:41.547Z,27.02
2017-05-03T03:07:10.483Z,23.98
2017-05-03T03:09:39.693Z,22.74
2017-05-03T03:12:08.635Z,26.16
2017-05-03T03:14:38.391Z,29.86
2017-05-03T03:17:07.659Z,26.64
2017-05-03T03:19:37.374Z,28.38
2017-05-03T03:22:06.406Z,28.12
2017-05-03T03:24:35.743Z,30.84
2017-05-03T03:27:04.685Z,32.62
2017-05-03T03:29:33.644Z,27.36
2017-05-03T03:32:02.925Z,36.12
2017-05-03T03:34:31.855Z,25.26
2017-05-03T03:37:00.819Z,29.28
2017-05-03T03:39:30.926Z,27.88
2017-05-03T03:41:59.884Z,29.70
2017-05-03T03:44:28.837Z,27.82
2017-05-03T03:46:58.198Z,26.74
2017-05-03T03:49:27.143Z,27.98
2017-05-03T03:51:56.142Z,27.28
2017-05-03T03:54:26.456Z,25.68
2017-05-03T03:56:55.418Z,25.34
2017-05-03T03:59:25.106Z,32.94
2017-05-03T04:01:54.462Z,29.16
2017-05-03T04:04:23.410Z,28.30
2017-05-03T04:06:53.094Z,27.14
2017-05-03T04:09:22.434Z,27.90
2017-05-03T04:11:51.388Z,27.88
2017-05-03T04:14:20.393Z,27.98
2017-05-03T04:16:49.710Z,27.40
2017-05-03T04:19:19.511Z,32.06
2017-05-03T04:21:48.464Z,25.18
2017-05-03T04:24:17.741Z,30.60
2017-05-03T04:26:46.675Z,32.60
2017-05-03T04:29:15.656Z,30.28
2017-05-03T04:31:44.982Z,29.26
2017-05-03T04:34:13.974Z,31.34
2017-05-03T04:36:43.720Z,34.22
2017-05-03T04:39:13.813Z,29.16
2017-05-03T04:41:43.538Z,37.06
2017-05-03T04:44:12.509Z,29.84
2017-05-03T04:46:43.385Z,31.46
2017-05-03T04:49:13.119Z,32.32
2017-05-03T04:51:42.078Z,37.34
2017-05-03T04:54:12.476Z,31.56
2017-05-03T04:56:42.231Z,30.52
2017-05-03T04:59:11.245Z,32.60
2017-05-03T05:01:40.659Z,30.84
2017-05-03T05:04:09.647Z,29.48
2017-05-03T05:06:38.638Z,39.16
2017-05-03T05:09:08.020Z,39.12
2017-05-03T05:11:37.011Z,33.04
2017-05-03T05:14:06.064Z,30.94
2017-05-03T05:16:35.334Z,32.14
2017-05-03T05:19:05.340Z,38.46
2017-05-03T05:21:34.361Z,27.24
2017-05-03T05:24:04.582Z,33.64
2017-05-03T05:26:33.534Z,30.94
2017-05-03T05:29:02.494Z,32.50
2017-05-03T05:31:31.948Z,32.08
2017-05-03T05:34:00.948Z,29.90
2017-05-03T05:36:30.719Z,31.90
2017-05-03T05:39:00.057Z,34.06
2017-05-03T05:41:29.752Z,34.04
2017-05-03T05:43:58.725Z,33.00
2017-05-03T05:46:28.328Z,32.70
2017-05-03T05:48:57.290Z,32.44
2017-05-03T05:51:26.284Z,32.44
2017-05-03T05:53:55.552Z,27.22
2017-05-03T05:56:25.258Z,27.80
2017-05-03T05:58:54.211Z,23.94
2017-05-03T06:01:23.554Z,21.02
2017-05-03T06:03:53.601Z,30.82
2017-05-03T06:06:22.586Z,21.70
2017-05-03T06:08:51.917Z,20.92
2017-05-03T06:11:20.867Z,21.50
2017-05-03T06:13:49.842Z,17.70
2017-05-03T06:16:19.942Z,16.62
2017-05-03T06:18:48.890Z,18.24
2017-05-03T06:21:17.840Z,20.54
2017-05-03T06:23:47.860Z,17.20
2017-05-03T06:26:16.877Z,17.82
2017-05-03T06:28:45.848Z,26.46
2017-05-03T06:31:16.113Z,19.72
2017-05-03T06:33:45.135Z,18.20
2017-05-03T06:36:14.089Z,18.28
2017-05-03T06:38:43.457Z,20.30
2017-05-03T06:41:12.408Z,23.68
2017-05-03T06:43:41.437Z,16.44
2017-05-03T06:46:10.684Z,20.04
2017-05-03T06:48:39.661Z,19.96
2017-05-03T06:51:08.651Z,19.78
2017-05-03T06:53:38.117Z,24.24
2017-05-03T06:56:07.893Z,17.60
2017-05-03T06:58:36.984Z,20.58
2017-05-03T07:01:06.272Z,18.88
2017-05-03T07:03:35.263Z,20.04
2017-05-03T07:06:04.260Z,27.16
2017-05-03T07:08:33.602Z,19.46
2017-05-03T07:11:03.310Z,18.12
2017-05-03T07:13:33.005Z,21.38
2017-05-03T07:16:02.413Z,18.78
2017-05-03T07:18:31.423Z,20.84
2017-05-03T07:21:01.128Z,19.06
2017-05-03T07:23:31.174Z,21.76
2017-05-03T07:26:00.153Z,26.48
2017-05-03T07:28:29.104Z,18.12
2017-05-03T07:30:58.514Z,17.82
2017-05-03T07:33:27.474Z,18.62
2017-05-03T07:35:56.466Z,22.98
2017-05-03T07:38:25.711Z,28.74
2017-05-03T07:40:55.435Z,23.26
2017-05-03T07:43:24.394Z,21.74
2017-05-03T07:45:53.707Z,22.14
2017-05-03T07:48:22.670Z,23.06
2017-05-03T07:50:51.637Z,22.44
2017-05-03T07:53:20.939Z,20.68
2017-05-03T07:55:49.926Z,22.14
2017-05-03T07:58:18.929Z,22.40
2017-05-03T08:00:48.198Z,21.90
2017-05-03T08:03:17.214Z,22.58
2017-05-03T08:05:46.201Z,20.38
2017-05-03T08:08:15.448Z,18.56
2017-05-03T08:10:44.430Z,19.50
2017-05-03T08:13:13.382Z,21.10
2017-05-03T08:15:42.733Z,23.44
2017-05-03T08:18:12.417Z,19.22
2017-05-03T08:20:41.398Z,16.34
2017-05-03T08:23:10.643Z,18.34
2017-05-03T08:25:40.347Z,19.86
2017-05-03T08:28:09.324Z,20.96
2017-05-03T08:30:38.577Z,19.62
2017-05-03T08:33:07.587Z,19.34
2017-05-03T08:35:36.550Z,22.14
2017-05-03T08:38:05.838Z,18.18
2017-05-03T08:40:34.801Z,18.52
2017-05-03T08:43:04.536Z,20.50
2017-05-03T08:45:33.856Z,17.88
2017-05-03T08:48:02.923Z,21.12
2017-05-03T08:50:31.881Z,17.64
2017-05-03T08:53:01.110Z,21.30
2017-05-03T08:55:30.833Z,22.38
2017-05-03T08:57:59.808Z,17.92
2017-05-03T09:00:29.095Z,23.94
2017-05-03T09:02:58.042Z,17.30
2017-05-03T09:05:27.087Z,17.12
2017-05-03T09:07:57.103Z,17.54
2017-05-03T09:10:26.785Z,15.08
2017-05-03T09:12:55.730Z,17.04
2017-05-03T09:15:25.100Z,22.02
2017-05-03T09:17:54.781Z,16.70
2017-05-03T09:20:23.832Z,15.90
2017-05-03T09:22:53.189Z,15.52
2017-05-03T09:25:22.355Z,19.42
2017-05-03T09:27:51.411Z,15.34
2017-05-03T09:30:20.682Z,13.54
2017-05-03T09:32:50.386Z,14.12
2017-05-03T09:35:20.137Z,16.82
2017-05-03T09:37:49.422Z,17.52
2017-05-03T09:40:18.386Z,17.30
2017-05-03T09:42:47.438Z,14.22
2017-05-03T09:45:16.861Z,15.74
2017-05-03T09:47:45.829Z,15.02
2017-05-03T09:50:14.796Z,14.42
2017-05-03T09:52:44.163Z,17.74
2017-05-03T09:55:13.117Z,13.34
2017-05-03T09:57:42.063Z,16.42
2017-05-03T10:00:12.057Z,19.18
2017-05-03T10:02:41.022Z,21.26
2017-05-03T10:05:10.075Z,14.44
2017-05-03T10:07:39.351Z,14.56
2017-05-03T10:10:09.084Z,13.74
2017-05-03T10:12:38.125Z,11.10
2017-05-03T10:15:07.439Z,13.48
2017-05-03T10:17:36.409Z,13.42
2017-05-03T10:20:05.363Z,14.78
2017-05-03T10:22:34.633Z,13.70
2017-05-03T10:25:03.614Z,17.82
2017-05-03T10:27:32.564Z,14.00
2017-05-03T10:30:01.957Z,17.82
2017-05-03T10:32:30.942Z,12.64
2017-05-03T10:34:59.918Z,18.76
2017-05-03T10:37:29.202Z,15.06
2017-05-03T10:39:58.895Z,17.34
2017-05-03T10:42:27.864Z,16.94
2017-05-03T10:44:57.218Z,17.66
2017-05-03T10:47:26.938Z,16.98
2017-05-03T10:49:55.881Z,18.80
2017-05-03T10:52:25.143Z,21.96
2017-05-03T10:54:54.072Z,19.76
2017-05-03T10:57:23.023Z,20.28
2017-05-03T10:59:52.378Z,19.34
2017-05-03T11:02:21.363Z,15.90
2017-05-03T11:04:50.433Z,19.22
2017-05-03T11:07:19.674Z,13.82
2017-05-03T11:09:49.391Z,15.38
2017-05-03T11:12:19.101Z,15.96
2017-05-03T11:14:48.548Z,19.30
2017-05-03T11:17:17.521Z,17.62
2017-05-03T11:19:46.523Z,17.06
2017-05-03T11:22:16.171Z,15.66
2017-05-03T11:24:45.905Z,14.96
2017-05-03T11:27:14.885Z,16.38
2017-05-03T11:29:44.952Z,17.72
2017-05-03T11:32:13.941Z,17.88
2017-05-03T11:34:42.915Z,21.20
2017-05-03T11:37:12.278Z,20.82
2017-05-03T11:39:41.248Z,17.66
2017-05-03T11:42:10.212Z,17.70
2017-05-03T11:44:39.579Z,16.34
2017-05-03T11:47:09.227Z,16.04
2017-05-03T11:49:38.194Z,17.94
2017-05-03T11:52:07.668Z,17.38
2017-05-03T11:54:37.401Z,19.24
2017-05-03T11:57:06.358Z,14.58
2017-05-03T11:59:35.625Z,19.16
2017-05-03T12:02:04.573Z,17.92
2017-05-03T12:04:34.229Z,13.34
2017-05-03T12:07:03.528Z,14.74
2017-05-03T12:09:32.482Z,16.06
2017-05-03T12:12:01.430Z,13.16
2017-05-03T12:14:30.690Z,13.92
2017-05-03T12:16:59.662Z,11.98
2017-05-03T12:19:28.614Z,18.44
2017-05-03T12:21:57.901Z,9.90
2017-05-03T12:24:26.886Z,13.46
2017-05-03T12:26:55.843Z,12.96
2017-05-03T12:29:25.179Z,14.34
2017-05-03T12:31:55.400Z,15.86
2017-05-03T12:34:24.363Z,17.26
2017-05-03T12:36:53.724Z,17.54
2017-05-03T12:39:23.497Z,17.00
2017-05-03T12:41:52.465Z,10.76
2017-05-03T12:44:22.011Z,16.94
2017-05-03T12:46:51.037Z,12.02
2017-05-03T12:49:19.984Z,13.68
2017-05-03T12:51:49.305Z,10.28
2017-05-03T12:54:18.275Z,12.50
2017-05-03T12:56:47.210Z,8.54
2017-05-03T12:59:16.613Z,12.34
2017-05-03T13:01:45.639Z,9.50
2017-05-03T13:04:14.630Z,11.64
2017-05-03T13:06:43.997Z,13.50
2017-05-03T13:09:13.701Z,18.16
2017-05-03T13:11:43.418Z,11.86
2017-05-03T13:14:12.087Z,11.86
2017-05-03T13:16:41.910Z,12.36
2017-05-03T13:19:10.871Z,15.46
2017-05-03T13:21:40.185Z,11.14
2017-05-03T13:24:09.899Z,10.96
2017-05-03T13:26:40.003Z,10.12
2017-05-03T13:29:08.994Z,9.38
2017-05-03T13:31:37.988Z,11.82
2017-05-03T13:34:08.029Z,8.24
2017-05-03T13:36:37.708Z,7.68
2017-05-03T13:39:06.710Z,15.48
2017-05-03T13:41:36.725Z,19.50
2017-05-03T13:44:05.680Z,11.86
2017-05-03T13:46:34.677Z,10.50
2017-05-03T13:49:04.093Z,11.64
2017-05-03T13:51:33.034Z,10.06
2017-05-03T13:54:02.069Z,9.96
2017-05-03T13:56:31.309Z,12.96
2017-05-03T13:59:01.029Z,9.74
2017-05-03T14:01:29.986Z,11.42
2017-05-03T14:03:59.236Z,9.82
2017-05-03T14:06:28.208Z,9.42
2017-05-03T14:08:57.159Z,9.22
2017-05-03T14:11:26.349Z,11.14
2017-05-03T14:13:55.290Z,11.44
2017-05-03T14:16:24.336Z,13.18
2017-05-03T14:18:53.917Z,9.38
2017-05-03T14:21:22.879Z,13.04
2017-05-03T14:23:51.835Z,9.48
2017-05-03T14:26:21.134Z,10.22
2017-05-03T14:28:50.126Z,9.22
2017-05-03T14:31:19.076Z,11.90
2017-05-03T14:33:48.445Z,13.42
2017-05-03T14:36:18.455Z,7.78
2017-05-03T14:38:48.551Z,11.72
2017-05-03T14:41:18.209Z,14.48
2017-05-03T14:43:47.150Z,7.98
2017-05-03T14:46:16.457Z,13.96
2017-05-03T14:48:45.451Z,11.26
2017-05-03T14:51:15.133Z,16.28
2017-05-03T14:53:44.465Z,8.40
2017-05-03T14:56:14.158Z,8.38
2017-05-03T14:58:43.123Z,8.98
2017-05-03T15:01:12.387Z,14.86
2017-05-03T15:03:41.319Z,10.68
2017-05-03T15:06:10.311Z,8.78
2017-05-03T15:08:39.574Z,7.72
2017-05-03T15:11:08.510Z,12.40
2017-05-03T15:13:37.443Z,9.94
2017-05-03T15:16:06.711Z,11.30
2017-05-03T15:18:35.700Z,13.00
2017-05-03T15:21:04.684Z,11.72
2017-05-03T15:23:34.014Z,9.84
2017-05-03T15:26:02.994Z,12.08
2017-05-03T15:28:32.706Z,12.84
2017-05-03T15:31:02.821Z,16.80
2017-05-03T15:33:31.797Z,9.74
2017-05-03T15:36:00.770Z,7.26
2017-05-03T15:38:30.066Z,9.68
2017-05-03T15:40:59.006Z,6.24
2017-05-03T15:43:28.094Z,7.62
2017-05-03T15:45:58.313Z,7.58
2017-05-03T15:48:28.094Z,4.92
2017-05-03T15:50:57.102Z,5.54
2017-05-03T15:53:26.412Z,7.12
2017-05-03T15:55:56.146Z,7.18
2017-05-03T15:58:25.095Z,8.12
2017-05-03T16:00:54.412Z,6.70
2017-05-03T16:03:23.381Z,7.88
2017-05-03T16:05:52.338Z,9.16
2017-05-03T16:08:21.702Z,6.20
2017-05-03T16:10:51.447Z,9.62
2017-05-03T16:13:20.470Z,15.16
2017-05-03T16:15:49.806Z,9.52
2017-05-03T16:18:19.511Z,7.04
2017-05-03T16:20:50.323Z,15.82
2017-05-03T16:23:19.290Z,10.66
2017-05-03T16:25:48.286Z,7.38
2017-05-03T16:28:17.577Z,5.94
2017-05-03T16:30:46.602Z,9.36
2017-05-03T16:33:15.569Z,6.98
2017-05-03T16:35:44.819Z,10.54
2017-05-03T16:38:14.535Z,3.98
2017-05-03T16:40:43.499Z,8.42
2017-05-03T16:43:12.817Z,9.54
2017-05-03T16:45:42.514Z,7.20
2017-05-03T16:48:11.494Z,4.88
2017-05-03T16:50:40.928Z,9.70
2017-05-03T16:53:10.790Z,13.72
2017-05-03T16:55:39.773Z,5.16
2017-05-03T16:58:09.078Z,9.84
2017-05-03T17:00:38.049Z,9.16
2017-05-03T17:03:07.062Z,7.04
2017-05-03T17:05:36.509Z,18.52
2017-05-03T17:08:06.214Z,4.98
2017-05-03T17:10:36.329Z,8.34
2017-05-03T17:13:06.065Z,14.34
2017-05-03T17:15:35.041Z,9.94
2017-05-03T17:18:05.054Z,8.48
2017-05-03T17:20:34.819Z,6.54
2017-05-03T17:23:03.802Z,7.08
2017-05-03T17:25:33.145Z,5.34
2017-05-03T17:28:02.106Z,7.10
2017-05-03T17:30:31.056Z,9.22
2017-05-03T17:33:00.464Z,6.58
2017-05-03T17:35:29.454Z,5.46
2017-05-03T17:37:58.493Z,7.10
2017-05-03T17:40:27.849Z,8.76
2017-05-03T17:42:56.783Z,8.12
2017-05-03T17:45:25.762Z,5.64
2017-05-03T17:47:55.027Z,8.90
2017-05-03T17:50:24.060Z,7.18
2017-05-03T17:52:53.033Z,8.36
2017-05-03T17:55:22.398Z,11.62
2017-05-03T17:57:52.128Z,4.90
2017-05-03T18:00:21.113Z,6.56
2017-05-03T18:02:50.478Z,7.06
2017-05-03T18:05:19.692Z,7.22
2017-05-03T18:07:49.784Z,11.38
2017-05-03T18:10:18.838Z,10.08
2017-05-03T18:12:47.870Z,9.78
2017-05-03T18:15:17.912Z,13.66
2017-05-03T18:17:47.680Z,8.86
2017-05-03T18:20:16.784Z,5.94
2017-05-03T18:22:46.080Z,6.10
2017-05-03T18:25:15.063Z,6.52
2017-05-03T18:27:44.047Z,9.92
2017-05-03T18:30:13.299Z,5.18
2017-05-03T18:32:42.998Z,11.10
2017-05-03T18:35:13.140Z,6.88
2017-05-03T18:37:42.170Z,7.28
2017-05-03T18:40:11.155Z,6.28
2017-05-03T18:42:40.521Z,10.92
2017-05-03T18:45:09.484Z,9.56
2017-05-03T18:47:38.539Z,9.04
2017-05-03T18:50:07.919Z,9.34
2017-05-03T18:52:36.973Z,11.52
2017-05-03T18:55:06.135Z,10.80
2017-05-03T18:57:35.451Z,10.54
2017-05-03T19:00:04.506Z,8.94
2017-05-03T19:02:33.615Z,13.60
2017-05-03T19:05:02.989Z,9.34
2017-05-03T19:07:32.142Z,8.76
2017-05-03T19:10:01.154Z,6.02
2017-05-03T19:12:31.199Z,5.22
2017-05-03T19:15:00.187Z,9.68
2017-05-03T19:17:29.275Z,9.78
2017-05-03T19:19:58.670Z,10.24
2017-05-03T19:22:28.463Z,11.62
2017-05-03T19:24:58.275Z,9.70
2017-05-03T19:27:28.243Z,8.84
2017-05-03T19:29:57.274Z,13.30
2017-05-03T19:32:26.248Z,10.50
2017-05-03T19:34:55.595Z,8.66
2017-05-03T19:37:25.321Z,14.46
2017-05-03T19:39:54.309Z,7.18
2017-05-03T19:42:23.751Z,8.28
2017-05-03T19:44:52.812Z,5.40
2017-05-03T19:47:21.858Z,6.46
2017-05-03T19:49:51.188Z,10.26
2017-05-03T19:52:20.590Z,9.50
2017-05-03T19:54:49.643Z,19.66
2017-05-03T19:57:19.008Z,8.30
2017-05-03T19:59:48.809Z,20.64
2017-05-03T20:02:17.972Z,11.74
2017-05-03T20:04:48.104Z,13.88
2017-05-03T20:07:17.874Z,10.52
2017-05-03T20:09:47.885Z,8.98
2017-05-03T20:12:17.160Z,8.54
2017-05-03T20:14:46.204Z,9.22
2017-05-03T20:17:16.872Z,7.60
2017-05-03T20:19:45.843Z,17.68
2017-05-03T20:22:15.551Z,14.62
2017-05-03T20:24:45.673Z,9.88
2017-05-03T20:27:15.383Z,7.24
2017-05-03T20:29:44.378Z,10.10
2017-05-03T20:32:14.361Z,11.34
2017-05-03T20:34:43.364Z,6.14
2017-05-03T20:37:12.428Z,6.46
2017-05-03T20:39:41.702Z,12.64
2017-05-03T20:42:10.684Z,11.28
2017-05-03T20:44:39.646Z,13.60
2017-05-03T20:47:09.666Z,10.74
2017-05-03T20:49:38.638Z,5.02
2017-05-03T20:52:07.652Z,7.22
2017-05-03T20:54:37.668Z,8.30
2017-05-03T20:57:07.340Z,6.38
2017-05-03T20:59:36.300Z,9.08
2017-05-03T21:02:07.280Z,9.94
2017-05-03T21:04:36.271Z,11.46
2017-05-03T21:07:05.240Z,16.56
2017-05-03T21:09:34.560Z,11.82
2017-05-03T21:12:03.507Z,7.86
2017-05-03T21:14:32.444Z,3.56
2017-05-03T21:17:01.998Z,8.48
2017-05-03T21:19:32.148Z,9.08
2017-05-03T21:22:02.182Z,5.40
2017-05-03T21:24:31.104Z,5.72
2017-05-03T21:27:00.871Z,7.78
2017-05-03T21:29:30.170Z,6.84
2017-05-03T21:31:59.094Z,6.96
2017-05-03T21:34:28.062Z,12.24
2017-05-03T21:36:57.415Z,7.56
2017-05-03T21:39:26.363Z,10.72
2017-05-03T21:41:55.315Z,7.38
2017-05-03T21:44:24.570Z,5.68
2017-05-03T21:46:54.284Z,6.28
2017-05-03T21:49:24.187Z,10.28
2017-05-03T21:51:54.171Z,4.46
2017-05-03T21:54:23.104Z,7.34
2017-05-03T21:56:52.814Z,6.72
2017-05-03T21:59:23.650Z,5.82
2017-05-03T22:01:52.628Z,4.04
2017-05-03T22:04:21.576Z,3.36
2017-05-03T22:06:50.868Z,7.40
2017-05-03T22:09:19.854Z,3.98
2017-05-03T22:11:48.803Z,3.34
2017-05-03T22:14:18.823Z,9.06
2017-05-03T22:16:48.567Z,4.80
2017-05-03T22:19:17.535Z,5.14
2017-05-03T22:21:47.651Z,9.94
2017-05-03T22:24:17.340Z,8.22
2017-05-03T22:26:46.362Z,5.36
2017-05-03T22:29:15.644Z,6.10
2017-05-03T22:31:45.338Z,5.80
2017-05-03T22:34:14.291Z,4.94
2017-05-03T22:36:43.547Z,2.88
2017-05-03T22:39:13.319Z,4.04
2017-05-03T22:41:42.834Z,5.60
2017-05-03T22:44:12.128Z,6.74
2017-05-03T22:46:41.088Z,5.42
2017-05-03T22:49:10.089Z,3.68
2017-05-03T22:51:39.313Z,5.64
2017-05-03T22:54:08.266Z,6.66
2017-05-03T22:56:37.224Z,4.62
2017-05-03T22:59:07.219Z,4.22
2017-05-03T23:01:36.175Z,11.92
2017-05-03T23:04:05.098Z,3.90
2017-05-03T23:06:34.316Z,7.24
2017-05-03T23:09:04.019Z,6.94
2017-05-03T23:11:34.030Z,11.18
2017-05-03T23:14:02.980Z,7.12
2017-05-03T23:16:31.910Z,5.34
2017-05-03T23:19:01.938Z,8.70
2017-05-03T23:21:31.705Z,8.30
2017-05-03T23:24:00.637Z,19.34
2017-05-03T23:26:30.648Z,8.46
2017-05-03T23:29:00.347Z,10.06
2017-05-03T23:31:29.282Z,4.20
2017-05-03T23:33:58.635Z,6.14
2017-05-03T23:36:27.565Z,6.22
2017-05-03T23:38:56.516Z,4.28
2017-05-03T23:41:25.861Z,9.90
2017-05-03T23:43:54.826Z,5.12
2017-05-03T23:46:24.511Z,6.12
2017-05-03T23:48:53.842Z,7.66
2017-05-03T23:51:23.510Z,6.44
2017-05-03T23:53:52.440Z,9.60
2017-05-03T23:56:22.434Z,3.34
2017-05-03T23:58:51.375Z,6.22
